Time;durP1;ratioP1;P1;durP2;ratioP2;P2;SDS_P1;SDS_P2;PMS_P1;PMS_P2;Temp;Humidity;BMP_temperature;BMP_pressure;BME280_temperature;BME280_humidity;BME280_pressure;Samples;Min_cycle;Max_cycle;Signal;HPM_P1;HPM_P2
2023/02/24 00:01:59;;;;;;;10.53;4.87;;;;;;;9.52;99.39;99962.34;5052786;28;20453;-50
2023/02/24 00:04:28;;;;;;;14.10;8.60;;;;;;;9.67;99.42;99967.19;5035915;28;20449;-51
2023/02/24 00:06:55;;;;;;;16.83;7.07;;;;;;;9.61;99.71;99959.41;5052877;28;20498;-51
2023/02/24 00:09:25;;;;;;;11.13;8.73;;;;;;;9.22;99.92;99966.75;5052758;28;20986;-50
2023/02/24 00:11:59;;;;;;;13.10;8.70;;;;;;;8.88;100.00;99959.69;5052803;28;20489;-50
2023/02/24 00:14:33;;;;;;;11.03;4.90;;;;;;;8.41;100.00;99969.78;5052830;28;20446;-51
2023/02/24 00:17:01;;;;;;;13.30;7.30;;;;;;;8.28;100.00;99960.34;5052696;28;20994;-50
2023/02/24 00:19:31;;;;;;;15.63;6.93;;;;;;;8.12;100.00;99959.00;5051617;28;20454;-50
2023/02/24 00:22:03;;;;;;;5.47;4.87;;;;;;;8.10;100.00;99960.81;5051490;28;20443;-50
2023/02/24 00:24:30;;;;;;;10.13;3.97;;;;;;;8.16;100.00;99955.34;5049571;28;20857;-50
2023/02/24 00:26:59;;;;;;;7.50;6.60;;;;;;;8.26;100.00;99954.22;5042333;28;20450;-50
2023/02/24 00:29:28;;;;;;;11.77;5.33;;;;;;;8.20;100.00;99952.59;5052591;28;20454;-51
2023/02/24 00:32:00;;;;;;;7.33;6.73;;;;;;;8.10;100.00;99953.75;5043741;28;21034;-51
2023/02/24 00:34:32;;;;;;;14.93;8.60;;;;;;;8.12;100.00;99951.06;5048812;28;20500;-50
2023/02/24 00:37:00;;;;;;;15.73;8.13;;;;;;;8.20;100.00;99949.06;5052804;28;20451;-50
2023/02/24 00:39:33;;;;;;;5.90;5.30;;;;;;;8.15;100.00;99950.97;5053153;28;20509;-51
2023/02/24 00:42:04;;;;;;;5.60;5.10;;;;;;;8.14;100.00;99951.88;5052175;28;20874;-52
2023/02/24 00:44:37;;;;;;;13.03;5.53;;;;;;;8.03;100.00;99947.69;5052526;28;20443;-50
2023/02/24 00:47:05;;;;;;;16.90;5.87;;;;;;;7.97;100.00;99942.56;5052011;28;20997;-50
2023/02/24 00:49:34;;;;;;;11.03;5.10;;;;;;;8.09;100.00;99938.75;5052174;28;20457;-50
2023/02/24 00:52:05;;;;;;;5.80;5.30;;;;;;;8.23;100.00;99943.72;5052053;28;20947;-50
2023/02/24 00:54:35;;;;;;;19.63;6.17;;;;;;;8.16;100.00;99939.47;5052266;28;20816;-51
2023/02/24 00:57:02;;;;;;;7.10;5.60;;;;;;;8.17;100.00;99943.84;5052125;28;20512;-51
2023/02/24 00:59:28;;;;;;;13.63;7.37;;;;;;;8.21;100.00;99940.22;5052358;28;20490;-50
2023/02/24 01:01:55;;;;;;;12.83;8.00;;;;;;;8.36;100.00;99939.91;5053703;28;20962;-51
2023/02/24 01:04:21;;;;;;;7.30;3.77;;;;;;;8.34;100.00;99931.09;5042758;28;20565;-50
2023/02/24 01:06:50;;;;;;;4.87;4.40;;;;;;;8.44;100.00;99932.59;5051853;28;20532;-50
2023/02/24 01:09:19;;;;;;;9.23;5.97;;;;;;;8.49;100.00;99922.75;5052011;28;20504;-51
2023/02/24 01:14:34;;;;;;;17.67;8.17;;;;;;;8.67;100.00;99920.56;5051830;28;20465;-50
2023/02/24 01:17:02;;;;;;;9.83;6.47;;;;;;;8.77;100.00;99917.63;5051862;28;20468;-49
2023/02/24 01:19:30;;;;;;;15.10;7.13;;;;;;;8.92;100.00;99908.38;5051995;28;20451;-50
2023/02/24 01:21:59;;;;;;;14.80;6.40;;;;;;;8.77;100.00;99909.66;5052228;28;20447;-49
2023/02/24 01:24:27;;;;;;;11.40;7.17;;;;;;;8.52;100.00;99912.09;5049430;28;20462;-50
2023/02/24 01:26:54;;;;;;;14.03;7.50;;;;;;;8.54;100.00;99906.75;5041402;28;20817;-50
2023/02/24 01:29:24;;;;;;;9.57;5.57;;;;;;;8.51;100.00;99906.84;5051763;28;20462;-50
2023/02/24 01:31:51;;;;;;;18.73;8.97;;;;;;;8.60;100.00;99899.50;5047243;28;20497;-50
2023/02/24 01:34:18;;;;;;;19.50;7.20;;;;;;;8.68;100.00;99890.50;5052623;28;20480;-50
2023/02/24 01:36:45;;;;;;;26.63;7.70;;;;;;;8.89;100.00;99893.41;5055658;28;21009;-51
2023/02/24 01:39:12;;;;;;;24.47;9.77;;;;;;;8.83;100.00;99895.38;5055539;28;20462;-50
2023/02/24 01:41:43;;;;;;;15.73;7.57;;;;;;;8.92;100.00;99888.94;5055350;28;20936;-51
2023/02/24 01:44:13;;;;;;;22.07;8.10;;;;;;;8.84;100.00;99887.38;5055392;28;20455;-51
2023/02/24 01:46:41;;;;;;;23.53;8.60;;;;;;;8.84;100.00;99889.16;5055364;28;20474;-51
2023/02/24 01:49:11;;;;;;;17.43;7.80;;;;;;;8.81;100.00;99883.94;5055623;28;20949;-50
2023/02/24 01:52:04;;;;;;;19.60;10.27;;;;;;;8.81;100.00;99876.88;5055710;28;20452;-51
2023/02/24 01:54:45;;;;;;;14.73;9.73;;;;;;;8.84;100.00;99881.19;5035363;28;20447;-50
2023/02/24 01:57:16;;;;;;;13.63;7.53;;;;;;;8.86;100.00;99871.41;5055150;28;20447;-51
2023/02/24 01:59:48;;;;;;;18.30;6.13;;;;;;;8.88;100.00;99869.59;5056210;28;20485;-50
2023/02/24 02:02:15;;;;;;;20.23;6.93;;;;;;;8.84;100.00;99865.31;5052719;28;20443;-51
2023/02/24 02:04:45;;;;;;;18.27;7.47;;;;;;;8.76;100.00;99861.97;5048254;28;20446;-50
2023/02/24 02:07:15;;;;;;;19.47;5.50;;;;;;;8.78;100.00;99860.19;5029683;28;20605;-49
2023/02/24 02:09:42;;;;;;;19.20;6.20;;;;;;;8.76;100.00;99867.28;5054989;28;20447;-50
2023/02/24 02:12:10;;;;;;;28.37;8.47;;;;;;;8.74;100.00;99863.81;5054975;28;20547;-51
2023/02/24 02:14:42;;;;;;;9.33;8.17;;;;;;;8.74;100.00;99858.50;5054963;28;20960;-51
2023/02/24 02:17:34;;;;;;;19.97;9.33;;;;;;;8.70;100.00;99856.88;5054908;28;20442;-51
2023/02/24 02:20:21;;;;;;;19.50;8.50;;;;;;;8.59;100.00;99844.78;5054639;28;20927;-51
2023/02/24 02:23:08;;;;;;;12.63;7.80;;;;;;;8.57;100.00;99841.31;5054697;28;20446;-51
2023/02/24 02:25:54;;;;;;;8.23;6.80;;;;;;;8.67;100.00;99846.38;5042696;28;20460;-51
2023/02/24 02:28:59;;;;;;;19.73;7.00;;;;;;;8.63;100.00;99834.09;5030574;28;20445;-50
2023/02/24 02:31:45;;;;;;;11.60;7.13;;;;;;;8.63;100.00;99840.25;5049862;28;21013;-50
2023/02/24 02:34:19;;;;;;;6.50;5.97;;;;;;;8.68;100.00;99835.72;5050423;28;20447;-50
2023/02/24 02:36:53;;;;;;;6.87;5.70;;;;;;;8.67;100.00;99841.06;5054635;28;20840;-50
2023/02/24 02:39:46;;;;;;;16.83;6.20;;;;;;;8.59;100.00;99838.63;5054451;28;20442;-50
2023/02/24 02:42:35;;;;;;;9.47;7.57;;;;;;;8.70;100.00;99840.97;5053198;28;20828;-50
2023/02/24 02:45:16;;;;;;;13.83;7.13;;;;;;;8.68;100.00;99838.38;5054453;28;20486;-50
2023/02/24 02:47:52;;;;;;;17.03;8.80;;;;;;;8.76;100.00;99832.84;5054406;28;20928;-51
2023/02/24 02:50:35;;;;;;;6.03;5.50;;;;;;;8.89;100.00;99835.09;5054337;28;20450;-51
2023/02/24 02:53:11;;;;;;;9.93;8.40;;;;;;;8.90;100.00;99826.22;5054497;28;21042;-50
2023/02/24 02:55:44;;;;;;;15.90;6.57;;;;;;;9.10;100.00;99828.31;5054254;28;20473;-50
2023/02/24 02:58:16;;;;;;;12.87;5.70;;;;;;;9.06;100.00;99821.38;5054275;28;20453;-51
2023/02/24 03:01:00;;;;;;;12.03;7.80;;;;;;;9.08;100.00;99822.19;5054030;28;20486;-51
2023/02/24 03:03:41;;;;;;;12.47;6.67;;;;;;;9.13;99.66;99812.28;5044578;28;20458;-50
2023/02/24 03:06:13;;;;;;;11.87;6.10;;;;;;;9.29;100.00;99811.81;5054169;28;20826;-50
2023/02/24 03:08:47;;;;;;;9.47;5.50;;;;;;;9.36;98.93;99805.44;5053828;28;20447;-50
2023/02/24 03:11:17;;;;;;;17.13;9.87;;;;;;;9.16;99.01;99801.59;5054119;28;20881;-50
2023/02/24 03:13:50;;;;;;;16.53;6.70;;;;;;;9.06;99.94;99799.28;5053853;28;20951;-50
2023/02/24 03:16:21;;;;;;;9.40;6.00;;;;;;;9.01;100.00;99795.88;5053886;28;20463;-50
2023/02/24 03:18:56;;;;;;;17.10;8.67;;;;;;;9.18;100.00;99794.47;5053680;28;20447;-50
2023/02/24 03:21:28;;;;;;;17.47;7.10;;;;;;;9.30;98.69;99790.56;5053633;28;21010;-50
2023/02/24 03:23:54;;;;;;;10.23;6.53;;;;;;;9.10;99.63;99793.84;5053579;28;20979;-51
2023/02/24 03:26:29;;;;;;;15.30;8.07;;;;;;;8.96;100.00;99784.56;5039874;28;20477;-50
2023/02/24 03:29:22;;;;;;;9.53;6.80;;;;;;;8.92;100.00;99788.22;5053413;28;20546;-51
2023/02/24 03:32:04;;;;;;;15.77;9.37;;;;;;;8.85;100.00;99783.09;5025349;28;20509;-51
2023/02/24 03:34:49;;;;;;;12.37;6.53;;;;;;;8.73;100.00;99780.81;5050778;28;20447;-50
2023/02/24 03:37:16;;;;;;;11.93;6.60;;;;;;;8.71;100.00;99787.94;5053455;28;20458;-50
2023/02/24 03:39:42;;;;;;;11.63;7.23;;;;;;;8.63;100.00;99776.69;5053205;28;20451;-50
2023/02/24 03:42:17;;;;;;;7.97;6.73;;;;;;;8.60;100.00;99779.44;5052991;28;20853;-51
2023/02/24 03:44:44;;;;;;;8.97;6.37;;;;;;;8.72;100.00;99775.56;5053086;28;20456;-50
2023/02/24 03:47:14;;;;;;;11.37;6.60;;;;;;;8.74;100.00;99776.38;5052975;28;20461;-50
2023/02/24 03:49:42;;;;;;;14.93;7.33;;;;;;;8.84;100.00;99767.25;5053507;28;20446;-50
2023/02/24 03:52:20;;;;;;;11.07;7.80;;;;;;;8.80;100.00;99768.25;5053047;28;20454;-51
2023/02/24 03:55:01;;;;;;;15.03;7.80;;;;;;;8.70;100.00;99766.78;5052760;28;20922;-50
2023/02/24 03:58:03;;;;;;;20.90;8.37;;;;;;;8.72;100.00;99762.31;5028294;28;20455;-50
2023/02/24 04:00:43;;;;;;;12.00;5.83;;;;;;;8.64;100.00;99761.69;4959113;28;21059;-50
2023/02/24 04:03:24;;;;;;;24.43;7.47;;;;;;;8.74;100.00;99756.03;5035109;28;20443;-50
2023/02/24 04:06:00;;;;;;;11.83;9.37;;;;;;;8.63;100.00;99758.13;5052679;28;20463;-50
2023/02/24 04:08:30;;;;;;;23.83;8.77;;;;;;;8.61;100.00;99762.63;5053013;28;20446;-52
2023/02/24 04:10:57;;;;;;;10.93;5.57;;;;;;;8.47;100.00;99752.41;5052811;28;20443;-50
2023/02/24 04:13:49;;;;;;;25.23;8.60;;;;;;;8.59;100.00;99761.78;5052515;28;20466;-50
2023/02/24 04:16:27;;;;;;;8.47;7.60;;;;;;;8.53;100.00;99756.69;5052323;28;21034;-51
2023/02/24 04:19:02;;;;;;;12.97;8.10;;;;;;;8.80;100.00;99747.06;5052837;28;20530;-50
2023/02/24 04:21:31;;;;;;;8.10;7.27;;;;;;;9.02;100.00;99758.72;5052526;28;20493;-52
2023/02/24 04:24:01;;;;;;;15.47;5.57;;;;;;;9.14;99.41;99746.88;5052476;28;20939;-50
2023/02/24 04:26:28;;;;;;;15.60;7.77;;;;;;;8.73;100.00;99749.00;5039054;28;20900;-50
2023/02/24 04:28:56;;;;;;;17.63;9.70;;;;;;;8.65;100.00;99742.22;5052636;28;20459;-50
2023/02/24 04:31:25;;;;;;;21.23;7.83;;;;;;;8.46;100.00;99744.53;5048226;28;20460;-51
2023/02/24 04:33:52;;;;;;;10.43;8.70;;;;;;;8.80;100.00;99733.81;5045820;28;20454;-50
2023/02/24 04:36:20;;;;;;;10.80;7.50;;;;;;;8.53;100.00;99728.41;5025881;28;20478;-51
2023/02/24 04:38:47;;;;;;;13.47;5.63;;;;;;;8.44;100.00;99739.28;5052213;28;20520;-51
2023/02/24 04:41:19;;;;;;;23.03;7.20;;;;;;;8.39;100.00;99735.03;5026038;28;20536;-51
2023/02/24 04:43:49;;;;;;;21.10;8.37;;;;;;;8.38;100.00;99731.53;5052263;28;20537;-51
2023/02/24 04:46:17;;;;;;;8.77;6.23;;;;;;;8.35;100.00;99718.34;5051447;28;20561;-51
2023/02/24 04:48:44;;;;;;;20.93;8.77;;;;;;;8.27;100.00;99717.69;5052041;28;20446;-51
2023/02/24 04:51:11;;;;;;;7.77;5.73;;;;;;;8.24;100.00;99702.75;5052338;28;20446;-51
2023/02/24 04:53:38;;;;;;;10.60;6.67;;;;;;;8.22;100.00;99701.03;5052433;28;20454;-52
2023/02/24 04:56:08;;;;;;;12.07;8.00;;;;;;;8.15;100.00;99700.34;5052420;28;20462;-51
2023/02/24 04:58:37;;;;;;;17.73;7.73;;;;;;;8.10;100.00;99699.63;5052252;28;20554;-51
2023/02/24 05:01:10;;;;;;;19.13;7.70;;;;;;;8.08;100.00;99697.91;5052097;28;20529;-51
2023/02/24 05:03:40;;;;;;;8.40;7.60;;;;;;;7.87;100.00;99684.38;5042595;28;20447;-51
2023/02/24 05:06:16;;;;;;;12.73;7.50;;;;;;;7.93;100.00;99686.84;5054168;28;20844;-51
2023/02/24 05:08:43;;;;;;;10.20;7.07;;;;;;;7.89;100.00;99692.28;5056333;28;20446;-51
2023/02/24 05:11:14;;;;;;;14.97;5.57;;;;;;;7.98;100.00;99684.09;5056215;28;20447;-51
2023/02/24 05:13:44;;;;;;;6.17;5.50;;;;;;;7.78;100.00;99687.25;5030825;28;20451;-51
2023/02/24 05:16:12;;;;;;;12.23;6.07;;;;;;;7.78;100.00;99695.19;5055946;28;20466;-51
2023/02/24 05:18:39;;;;;;;12.37;5.43;;;;;;;7.79;100.00;99681.06;5047801;28;20479;-51
2023/02/24 05:23:57;;;;;;;8.90;5.60;;;;;;;7.68;100.00;99675.22;5055946;28;20538;-51
2023/02/24 05:26:24;;;;;;;15.40;8.00;;;;;;;7.77;100.00;99668.78;5042344;28;20871;-51
2023/02/24 05:28:53;;;;;;;3.33;3.03;;;;;;;7.57;100.00;99664.91;5055804;28;20807;-51
2023/02/24 05:31:24;;;;;;;13.27;8.23;;;;;;;7.90;100.00;99673.69;5051724;28;20458;-51
2023/02/24 05:33:54;;;;;;;9.60;4.37;;;;;;;7.82;100.00;99657.19;5049542;28;20449;-51
2023/02/24 05:36:21;;;;;;;10.70;7.67;;;;;;;7.69;100.00;99661.06;5055886;28;20471;-51
2023/02/24 05:39:05;;;;;;;18.13;6.37;;;;;;;7.75;100.00;99660.03;5055481;28;20826;-51
2023/02/24 05:41:34;;;;;;;12.17;5.40;;;;;;;7.72;100.00;99659.22;5055455;28;20508;-51
2023/02/24 05:44:07;;;;;;;8.93;5.30;;;;;;;7.68;100.00;99659.34;5055654;28;20489;-51
2023/02/24 05:46:37;;;;;;;14.37;5.80;;;;;;;7.64;100.00;99662.97;5054237;28;20478;-51
2023/02/24 05:49:09;;;;;;;7.77;5.50;;;;;;;7.46;100.00;99650.22;5055354;28;20955;-51
2023/02/24 05:51:37;;;;;;;25.80;10.97;;;;;;;7.38;100.00;99656.56;5055415;28;20445;-51
2023/02/24 05:54:06;;;;;;;5.70;5.20;;;;;;;7.40;100.00;99656.53;5055157;28;20454;-52
2023/02/24 05:56:35;;;;;;;17.63;6.53;;;;;;;7.43;100.00;99654.69;5055356;28;20477;-51
2023/02/24 05:59:05;;;;;;;12.80;5.60;;;;;;;7.41;100.00;99656.53;5055384;28;20454;-51
2023/02/24 06:01:35;;;;;;;17.73;4.63;;;;;;;7.42;100.00;99660.91;5054889;28;21065;-51
2023/02/24 06:04:05;;;;;;;13.33;5.07;;;;;;;7.42;100.00;99657.38;5045890;28;20450;-51
2023/02/24 06:06:36;;;;;;;5.77;5.03;;;;;;;7.35;100.00;99648.72;5054938;28;20479;-51
2023/02/24 06:09:11;;;;;;;10.27;5.10;;;;;;;7.51;100.00;99646.53;5055107;28;20443;-51
2023/02/24 06:11:39;;;;;;;10.13;4.90;;;;;;;7.77;100.00;99651.13;5054820;28;20447;-51
2023/02/24 06:14:07;;;;;;;8.83;6.77;;;;;;;7.81;100.00;99646.63;5054954;28;20537;-51
2023/02/24 06:16:39;;;;;;;13.33;6.43;;;;;;;7.58;100.00;99639.34;5054354;28;20510;-52
2023/02/24 06:19:07;;;;;;;8.90;6.23;;;;;;;7.46;100.00;99637.88;5053551;28;20530;-52
2023/02/24 06:21:39;;;;;;;9.03;6.23;;;;;;;7.59;100.00;99639.28;5054612;28;20501;-51
2023/02/24 06:24:13;;;;;;;17.40;7.00;;;;;;;7.55;100.00;99639.44;5054897;28;20546;-51
2023/02/24 06:26:44;;;;;;;15.17;6.27;;;;;;;7.55;100.00;99639.44;5054743;28;20493;-51
2023/02/24 06:29:14;;;;;;;17.00;6.17;;;;;;;7.57;100.00;99646.41;5054558;28;20443;-51
2023/02/24 06:31:42;;;;;;;17.43;7.93;;;;;;;7.61;100.00;99647.19;5047758;28;20467;-51
2023/02/24 06:34:11;;;;;;;18.93;7.93;;;;;;;7.53;100.00;99636.78;5050126;28;20450;-51
2023/02/24 06:36:38;;;;;;;11.60;6.20;;;;;;;7.37;100.00;99638.09;5054645;28;20467;-51
2023/02/24 06:39:12;;;;;;;23.43;9.60;;;;;;;7.58;100.00;99628.75;5054482;28;20447;-51
2023/02/24 06:41:39;;;;;;;16.57;7.83;;;;;;;7.51;100.00;99630.69;5054434;28;20858;-51
2023/02/24 06:44:05;;;;;;;16.03;7.60;;;;;;;7.60;100.00;99626.94;5054073;28;20450;-51
2023/02/24 06:46:32;;;;;;;8.63;5.43;;;;;;;7.54;100.00;99641.19;5054149;28;20475;-51
2023/02/24 06:48:58;;;;;;;7.53;6.67;;;;;;;7.56;100.00;99634.09;5054213;28;20447;-51
2023/02/24 06:51:28;;;;;;;5.50;4.30;;;;;;;7.53;100.00;99638.56;5054333;28;20454;-51
2023/02/24 06:53:58;;;;;;;11.47;7.30;;;;;;;7.54;100.00;99643.84;5054040;28;20894;-51
2023/02/24 06:56:26;;;;;;;14.67;5.57;;;;;;;7.52;100.00;99636.84;5054572;28;20528;-52
2023/02/24 06:58:55;;;;;;;18.80;7.70;;;;;;;7.54;100.00;99630.63;5054189;28;20455;-51
2023/02/24 07:01:24;;;;;;;8.43;4.60;;;;;;;7.57;100.00;99635.81;5054234;28;20569;-51
2023/02/24 07:04:16;;;;;;;23.47;4.53;;;;;;;7.57;100.00;99627.03;5044558;28;20493;-51
2023/02/24 07:06:51;;;;;;;14.10;5.87;;;;;;;7.60;100.00;99641.03;5053881;28;20463;-51
2023/02/24 07:09:24;;;;;;;7.50;6.80;;;;;;;7.64;100.00;99636.50;5053918;28;20446;-51
2023/02/24 07:11:54;;;;;;;6.10;5.60;;;;;;;7.69;100.00;99648.72;5053849;28;20438;-51
2023/02/24 07:14:23;;;;;;;6.80;4.47;;;;;;;7.81;100.00;99638.69;5054098;28;20447;-51
2023/02/24 07:16:52;;;;;;;16.37;8.63;;;;;;;7.77;100.00;99645.84;5052515;28;20493;-51
2023/02/24 07:19:22;;;;;;;10.93;6.33;;;;;;;7.65;100.00;99638.25;5053565;28;20447;-51
2023/02/24 07:21:51;;;;;;;13.53;8.20;;;;;;;7.69;100.00;99638.13;5053454;28;20574;-51
2023/02/24 07:24:23;;;;;;;5.73;4.20;;;;;;;7.86;100.00;99642.09;5052475;28;20489;-51
2023/02/24 07:26:59;;;;;;;10.83;5.07;;;;;;;7.91;100.00;99638.38;5042636;28;20540;-51
2023/02/24 07:29:29;;;;;;;7.70;4.20;;;;;;;7.85;100.00;99638.56;5051734;28;20517;-51
2023/02/24 07:32:05;;;;;;;10.57;7.67;;;;;;;7.91;100.00;99648.09;5044590;28;20960;-51
2023/02/24 07:34:32;;;;;;;9.80;6.73;;;;;;;8.13;100.00;99643.94;5051264;28;20508;-52
2023/02/24 07:37:05;;;;;;;19.23;4.50;;;;;;;8.08;100.00;99637.03;5053524;28;20868;-51
2023/02/24 07:39:32;;;;;;;9.70;5.83;;;;;;;8.16;100.00;99638.56;5026989;28;20451;-52
2023/02/24 07:41:58;;;;;;;12.33;6.33;;;;;;;8.20;100.00;99634.91;5053108;28;20489;-51
2023/02/24 07:44:25;;;;;;;9.20;5.63;;;;;;;8.24;100.00;99627.75;5053191;28;20465;-51
2023/02/24 07:46:51;;;;;;;24.13;8.27;;;;;;;8.21;100.00;99620.75;5052926;28;20478;-52
2023/02/24 07:49:21;;;;;;;11.00;6.40;;;;;;;8.27;100.00;99620.59;5053058;28;20450;-51
2023/02/24 07:51:51;;;;;;;16.03;6.93;;;;;;;8.29;100.00;99617.88;5052980;28;20447;-51
2023/02/24 07:54:20;;;;;;;17.53;8.20;;;;;;;8.27;100.00;99607.34;5053299;28;20871;-51
2023/02/24 07:56:55;;;;;;;19.13;8.97;;;;;;;8.34;100.00;99608.03;5052786;28;21048;-51
2023/02/24 07:59:26;;;;;;;19.03;8.37;;;;;;;8.41;100.00;99606.09;5053128;28;20439;-51
2023/02/24 08:01:54;;;;;;;16.03;8.07;;;;;;;8.42;100.00;99599.88;5052844;28;20490;-51
2023/02/24 08:04:27;;;;;;;32.73;7.47;;;;;;;8.34;100.00;99602.75;5043717;28;20465;-51
2023/02/24 08:06:55;;;;;;;10.10;5.60;;;;;;;8.41;100.00;99606.94;5053798;28;20462;-53
2023/02/24 08:12:19;;;;;;;10.03;7.37;;;;;;;8.50;100.00;99585.50;5029232;28;20439;-52
2023/02/24 08:14:51;;;;;;;20.23;7.60;;;;;;;8.66;100.00;99592.94;5037216;28;20485;-51
2023/02/24 08:17:21;;;;;;;15.17;7.10;;;;;;;8.63;100.00;99593.03;5042601;28;20447;-51
2023/02/24 08:19:49;;;;;;;20.23;8.33;;;;;;;8.77;100.00;99580.19;5052245;28;20463;-51
2023/02/24 08:22:19;;;;;;;17.63;11.30;;;;;;;8.88;100.00;99583.38;5051229;28;21093;-51
2023/02/24 08:24:54;;;;;;;17.50;9.63;;;;;;;8.86;100.00;99582.56;5046335;28;20465;-51
2023/02/24 08:27:23;;;;;;;6.93;6.07;;;;;;;9.17;100.00;99571.78;5046017;28;20572;-51
2023/02/24 08:29:58;;;;;;;19.97;9.37;;;;;;;9.02;100.00;99569.66;5052841;28;20494;-51
2023/02/24 08:32:42;;;;;;;26.13;9.73;;;;;;;8.95;100.00;99574.31;5041132;28;20533;-51
2023/02/24 08:35:17;;;;;;;20.47;8.00;;;;;;;9.03;100.00;99580.19;5052790;28;20462;-51
2023/02/24 08:37:45;;;;;;;11.63;8.00;;;;;;;9.10;100.00;99575.56;5052538;28;20449;-52
2023/02/24 08:45:50;;;;;;;15.43;7.30;;;;;;;9.34;99.68;99577.38;5052394;28;20565;-62
2023/02/24 08:48:31;;;;;;;11.30;6.80;;;;;;;9.60;99.02;99573.81;5052587;28;20450;-52
2023/02/24 08:51:00;;;;;;;15.93;5.17;;;;;;;9.59;97.73;99577.34;5026880;28;20538;-52
2023/02/24 08:53:30;;;;;;;21.60;8.83;;;;;;;9.67;97.33;99571.78;5052295;28;20486;-52
2023/02/24 08:56:08;;;;;;;16.27;8.70;;;;;;;9.79;96.63;99564.25;5052496;28;20471;-51
2023/02/24 08:58:47;;;;;;;17.83;7.47;;;;;;;9.86;97.00;99558.69;5052394;28;20847;-52
2023/02/24 09:01:22;;;;;;;15.93;7.97;;;;;;;9.88;96.27;99560.38;5052209;28;20963;-52
2023/02/24 09:03:55;;;;;;;19.50;8.93;;;;;;;9.84;97.59;99558.75;5042472;28;20486;-52
2023/02/24 09:06:47;;;;;;;48.60;9.27;;;;;;;9.71;97.07;99553.03;5052135;28;20466;-51
2023/02/24 09:09:17;;;;;;;8.97;8.00;;;;;;;9.90;96.91;99561.19;5052327;28;20860;-51
2023/02/24 09:11:45;;;;;;;18.90;7.67;;;;;;;9.80;95.51;99551.84;5052071;28;20447;-51
2023/02/24 09:14:15;;;;;;;14.50;6.40;;;;;;;9.91;94.26;99546.13;5051116;28;20625;-51
2023/02/24 09:17:04;;;;;;;27.37;8.67;;;;;;;9.78;94.59;99545.72;5024702;28;20521;-51
2023/02/24 09:22:31;;;;;;;14.07;7.70;;;;;;;10.01;93.84;99539.56;5053252;28;21030;-51
2023/02/24 09:25:20;;;;;;;14.53;6.20;;;;;;;9.90;93.61;99542.59;5045714;28;20466;-52
2023/02/24 09:28:06;;;;;;;14.37;8.67;;;;;;;9.83;94.09;99540.22;5049752;28;20444;-51
2023/02/24 09:30:54;;;;;;;9.80;5.67;;;;;;;9.85;94.52;99527.75;5052850;28;20493;-51
2023/02/24 09:33:37;;;;;;;21.00;6.93;;;;;;;10.11;93.55;99524.97;5033486;28;20529;-51
2023/02/24 09:36:08;;;;;;;7.77;6.70;;;;;;;10.18;93.54;99515.84;5051035;28;20471;-51
2023/02/24 09:44:33;;;;;;;26.47;5.97;;;;;;;10.22;91.46;99508.66;5051754;28;20485;-52
2023/02/24 09:47:16;;;;;;;17.07;7.20;;;;;;;10.51;89.99;99510.13;5051495;28;20595;-51
2023/02/24 09:49:54;;;;;;;18.03;7.97;;;;;;;10.81;89.24;99506.19;5051504;28;20455;-52
2023/02/24 09:52:38;;;;;;;15.70;6.30;;;;;;;10.57;87.99;99508.09;5054051;28;20537;-51
2023/02/24 09:55:29;;;;;;;6.40;5.30;;;;;;;10.61;87.90;99496.41;5055223;28;20473;-52
2023/02/24 09:58:36;;;;;;;9.83;7.63;;;;;;;10.54;87.10;99491.41;5055335;28;20478;-52
2023/02/24 10:01:34;;;;;;;14.03;6.33;;;;;;;10.64;86.21;99483.00;5037355;28;20827;-52
2023/02/24 10:04:26;;;;;;;16.17;6.63;;;;;;;10.63;86.02;99481.25;5040197;28;20836;-52
2023/02/24 10:06:57;;;;;;;14.00;5.47;;;;;;;10.57;86.70;99473.56;5054921;28;21023;-52
2023/02/24 10:09:42;;;;;;;20.73;6.90;;;;;;;10.61;86.21;99474.28;5055251;28;20975;-52
2023/02/24 10:12:30;;;;;;;9.27;7.93;;;;;;;10.78;85.45;99471.78;5030704;28;20496;-52
2023/02/24 10:18:47;;;;;;;7.67;6.50;;;;;;;10.69;86.28;99469.53;5023486;28;20451;-52
2023/02/24 10:21:59;;;;;;;10.03;7.00;;;;;;;10.75;86.51;99469.25;5054878;28;20457;-51
2023/02/24 10:24:46;;;;;;;25.87;8.13;;;;;;;10.57;86.90;99465.59;5052321;28;20474;-52
2023/02/24 10:27:30;;;;;;;8.10;6.60;;;;;;;10.47;87.17;99460.72;5047203;28;21020;-52
2023/02/24 10:30:26;;;;;;;10.73;5.67;;;;;;;10.50;88.40;99453.47;5057025;28;20549;-51
2023/02/24 10:32:58;;;;;;;10.17;5.87;;;;;;;11.12;87.11;99446.41;5043054;28;20477;-51
2023/02/24 10:35:32;;;;;;;21.63;8.40;;;;;;;11.16;87.15;99451.50;5054296;28;20888;-52
2023/02/24 10:38:09;;;;;;;12.60;7.93;;;;;;;11.13;84.85;99446.31;5054669;28;20447;-51
2023/02/24 10:40:56;;;;;;;7.57;5.73;;;;;;;11.40;83.36;99430.06;5054485;28;20446;-51
2023/02/24 10:43:32;;;;;;;5.53;5.10;;;;;;;11.24;82.52;99433.41;5054427;28;20501;-51
2023/02/24 10:46:15;;;;;;;16.17;3.37;;;;;;;11.60;81.87;99423.81;5055015;28;20564;-51
2023/02/24 10:48:59;;;;;;;7.60;6.13;;;;;;;11.48;81.59;99414.59;5053260;28;20855;-52
2023/02/24 10:51:32;;;;;;;7.70;4.87;;;;;;;11.56;80.57;99421.28;5054743;28;20533;-51
2023/02/24 11:00:29;;;;;;;14.00;5.77;;;;;;;11.55;76.63;99405.41;5054437;28;20537;-52
2023/02/24 11:03:08;;;;;;;4.97;4.57;;;;;;;11.25;77.17;99399.69;5027928;28;20492;-51
2023/02/24 11:06:06;;;;;;;6.40;3.60;;;;;;;11.39;76.72;99389.28;5029308;28;20469;-51
2023/02/24 11:08:53;;;;;;;11.17;5.30;;;;;;;11.48;78.27;99380.00;5053622;28;20486;-52
2023/02/24 11:11:28;;;;;;;8.03;4.50;;;;;;;11.63;77.79;99378.41;5054066;28;20449;-52
2023/02/24 11:19:44;;;;;;;10.70;5.03;;;;;;;11.54;75.99;99361.09;5053463;28;20798;-51
2023/02/24 11:22:24;;;;;;;15.10;4.00;;;;;;;11.61;75.34;99358.97;5052645;28;20450;-52
2023/02/24 11:24:51;;;;;;;3.83;3.33;;;;;;;11.44;74.95;99365.97;5053552;28;20439;-51
2023/02/24 11:27:22;;;;;;;3.93;2.93;;;;;;;11.47;75.38;99363.16;5053538;28;20458;-52
2023/02/24 11:30:05;;;;;;;5.93;3.33;;;;;;;11.79;74.76;99347.50;5053995;28;20450;-52
2023/02/24 11:32:50;;;;;;;3.83;2.30;;;;;;;11.81;72.70;99345.63;5041757;28;20813;-51
2023/02/24 11:35:30;;;;;;;4.67;2.30;;;;;;;11.91;71.94;99340.69;5053347;28;20448;-51
2023/02/24 11:38:26;;;;;;;7.47;5.43;;;;;;;11.89;72.94;99331.91;5053371;28;20443;-52
2023/02/24 11:41:04;;;;;;;5.43;4.93;;;;;;;11.80;71.97;99328.78;5051911;28;20493;-51
2023/02/24 11:43:33;;;;;;;4.73;4.13;;;;;;;12.02;72.62;99327.69;5052997;28;20486;-51
2023/02/24 11:46:10;;;;;;;3.10;2.87;;;;;;;12.31;71.23;99315.56;5053362;28;20478;-51
2023/02/24 11:48:50;;;;;;;4.13;3.73;;;;;;;12.53;69.33;99315.34;5053421;28;20477;-52
2023/02/24 11:51:21;;;;;;;8.80;3.17;;;;;;;12.78;68.37;99299.78;5053371;28;20449;-51
2023/02/24 11:54:10;;;;;;;4.83;2.60;;;;;;;12.83;66.47;99295.03;5052814;28;20493;-52
2023/02/24 11:56:53;;;;;;;4.60;4.17;;;;;;;13.16;67.83;99291.50;5052732;28;20467;-51
2023/02/24 11:59:35;;;;;;;4.30;2.97;;;;;;;13.07;66.71;99274.19;5031386;28;20459;-52
2023/02/24 12:02:25;;;;;;;4.13;2.53;;;;;;;13.05;65.16;99278.75;5052308;28;20501;-52
2023/02/24 12:05:18;;;;;;;2.80;2.60;;;;;;;12.88;63.41;99266.31;5046999;28;20463;-52
2023/02/24 12:07:49;;;;;;;7.70;4.70;;;;;;;12.52;66.19;99266.50;5053007;28;20446;-52
2023/02/24 12:10:21;;;;;;;2.37;2.13;;;;;;;12.60;64.74;99263.41;5053752;28;20453;-51
2023/02/24 12:13:00;;;;;;;3.27;2.97;;;;;;;12.34;64.08;99251.47;5052617;28;20443;-52
2023/02/24 12:15:54;;;;;;;2.13;1.90;;;;;;;12.61;65.15;99236.69;5020607;28;20475;-51
2023/02/24 12:18:41;;;;;;;3.03;2.40;;;;;;;12.77;61.25;99235.84;5050996;28;20439;-52
2023/02/24 12:21:29;;;;;;;3.93;1.93;;;;;;;12.98;60.09;99232.00;5052328;28;20950;-51
2023/02/24 12:23:57;;;;;;;2.13;1.73;;;;;;;12.94;58.85;99239.31;5052600;28;20563;-52
2023/02/24 12:26:29;;;;;;;3.67;3.37;;;;;;;12.90;58.89;99229.75;5038877;28;20493;-51
2023/02/24 12:28:59;;;;;;;3.17;2.13;;;;;;;12.80;59.96;99219.69;5052405;28;20451;-52
2023/02/24 12:31:52;;;;;;;3.10;2.80;;;;;;;12.76;60.62;99213.66;5021424;28;20888;-52
2023/02/24 12:34:49;;;;;;;4.43;2.57;;;;;;;12.94;61.56;99209.09;5049418;28;20482;-52
2023/02/24 12:37:31;;;;;;;2.60;1.77;;;;;;;12.70;61.29;99204.16;5052043;28;21043;-52
2023/02/24 12:40:22;;;;;;;2.27;1.73;;;;;;;12.74;62.13;99196.84;5052131;28;20989;-51
2023/02/24 12:42:53;;;;;;;1.87;1.77;;;;;;;12.56;59.61;99188.06;5052220;28;20585;-51